Fairfield, North Carolina
Current Conditions -  °F | °C
As of 1:56 PM on Friday 24 Oct 2014 (Local Time) from K2DP Reporting Station
Clear Clear  
Wind Chill: 65°   Ceiling: Unl
Heat Index: 65°   Visibility: 10mi
Dew Point: 47°   Wind: 10mph
Humidity: 52%   Direction: 320°NW
Pressure: 29.96"   Gusts: 18mph
Location:  35.54°N, 76.22°W
Report Text: K2DP 241756Z AUTO 32009G16KT 10SM CLR 19/09 A2996 RMK AO2 SLPNO T01860086 10189 20096 58014
Loading
Personal Weather Stations






























Interactive Weather Map
Tropical Storm Tracking
New forecast layout! Learn more

10-Day Weather Forecast

Advertisements
Track Severe Weather on mobile